This is the latest recevied weather packets stored in our database for station/object JA3QOS-13. If no packets are shown the sender has not sent any weather packets the latest 10 day(s).
| Time | Temp. | Humidity | Pressure | Rain* | Wind** | Luminosity | Snow |
|---|---|---|---|---|---|---|---|
| 1777806004 | 15° C | 99% | 1004.1 hPa | 2.03 mm | - | - | - |
| 1777804203 | 15° C | 99% | 1004.1 hPa | 2.79 mm | - | - | - |
| 1777802403 | 14.44° C | 99% | 1004.3 hPa | 2.03 mm | - | - | - |
| 1777800604 | 14.44° C | 99% | 1004.2 hPa | 3.05 mm | - | - | - |
| 1777798804 | 13.89° C | 99% | 1004.9 hPa | 5.33 mm | - | - | - |
| 1777797003 | 13.89° C | 99% | 1004.7 hPa | 5.59 mm | - | - | - |
| 1777795204 | 13.33° C | 99% | 1005.7 hPa | 3.56 mm | - | - | - |
| 1777793404 | 13.33° C | 99% | 1005.2 hPa | 1.02 mm | - | - | - |
| 1777791604 | 13.89° C | 99% | 1005.6 hPa | 0.25 mm | - | - | - |
| 1777789804 | 13.89° C | 99% | 1005.7 hPa | 0.25 mm | - | - | - |
| 1777788004 | 14.44° C | 95% | 1006.4 hPa | 0 mm | - | - | - |
| 1777786203 | 16.67° C | 83% | 1006.1 hPa | 0 mm | - | - | - |
| 1777784404 | 16.67° C | 82% | 1006.7 hPa | 0 mm | - | - | - |
| 1777782604 | 16.67° C | 82% | 1007.3 hPa | 0 mm | - | - | - |
| 1777780804 | 16.67° C | 85% | 1007.4 hPa | 0 mm | - | - | - |
| 1777779003 | 16.11° C | 86% | 1008.4 hPa | 0 mm | - | - | - |
| 1777777203 | 16.11° C | 88% | 1008.8 hPa | 0 mm | - | - | - |
| 1777775403 | 16.11° C | 88% | 1009.5 hPa | 0 mm | - | - | - |
| 1777773604 | 15.56° C | 87% | 1010.1 hPa | 0 mm | - | - | - |
| 1777771804 | 16.11° C | 84% | 1010.6 hPa | 0 mm | - | - | - |
| 1777770004 | 16.11° C | 81% | 1010.6 hPa | 0 mm | - | - | - |
| 1777768204 | 16.67° C | 80% | 1010.8 hPa | 0 mm | - | - | - |
| 1777766410 | 16.11° C | 80% | 1011 hPa | 0 mm | - | - | - |
| 1777764603 | 15.56° C | 79% | 1011.2 hPa | 0 mm | - | - | - |
| 1777762804 | 15° C | 78% | 1011 hPa | 0 mm | - | - | - |
* Rain latest hour (hover to see other rain measurements)
** Current wind speed in m/s (hover to see current wind gust speed)